createdAt,value
2022-11-23T00:00:03.201Z,940.31
2022-11-23T00:05:03.126Z,940.39
2022-11-23T00:10:03.159Z,940.41
2022-11-23T00:15:03.308Z,940.49
2022-11-23T00:20:03.357Z,940.57
2022-11-23T00:25:03.141Z,940.59
2022-11-23T00:30:03.190Z,940.66
2022-11-23T00:35:03.087Z,940.72
2022-11-23T00:40:03.194Z,940.80
2022-11-23T00:45:03.196Z,940.90
2022-11-23T00:50:03.224Z,941.11
2022-11-23T00:55:03.067Z,941.08
2022-11-23T01:00:03.116Z,941.04
2022-11-23T01:05:03.104Z,941.04
2022-11-23T01:10:03.286Z,941.09
2022-11-23T01:15:04.059Z,941.13
2022-11-23T01:20:03.309Z,941.13
2022-11-23T01:25:03.029Z,941.11
2022-11-23T01:30:03.339Z,941.15
2022-11-23T01:35:02.981Z,941.15
2022-11-23T01:40:03.288Z,941.21
2022-11-23T01:45:03.058Z,941.21
2022-11-23T01:50:03.143Z,941.23
2022-11-23T01:55:08.242Z,941.29
2022-11-23T02:00:03.190Z,941.35
2022-11-23T02:05:03.021Z,941.33
2022-11-23T02:10:03.184Z,941.33
2022-11-23T02:15:03.032Z,941.33
2022-11-23T02:20:08.196Z,941.33
2022-11-23T02:25:04.084Z,941.27
2022-11-23T02:30:03.188Z,941.27
2022-11-23T02:35:03.136Z,941.25
2022-11-23T02:40:03.162Z,941.21
2022-11-23T02:45:03.168Z,941.13
2022-11-23T02:50:03.200Z,941.11
2022-11-23T02:55:03.319Z,941.08
2022-11-23T03:00:03.260Z,941.06
2022-11-23T03:05:03.051Z,941.04
2022-11-23T03:10:03.172Z,940.92
2022-11-23T03:15:03.039Z,940.86
2022-11-23T03:20:03.187Z,940.82
2022-11-23T03:25:03.116Z,940.84
2022-11-23T03:30:03.167Z,940.84
2022-11-23T03:35:03.103Z,940.86
2022-11-23T03:40:03.238Z,940.80
2022-11-23T03:45:03.023Z,940.76
2022-11-23T03:50:03.342Z,940.74
2022-11-23T03:55:03.012Z,940.72
2022-11-23T04:00:03.131Z,940.70
2022-11-23T04:05:03.070Z,940.64
2022-11-23T04:10:04.615Z,940.61
2022-11-23T04:15:03.007Z,940.51
2022-11-23T04:20:03.321Z,940.47
2022-11-23T04:25:02.994Z,940.39
2022-11-23T04:30:03.537Z,940.33
2022-11-23T04:35:03.019Z,940.21
2022-11-23T04:40:03.166Z,940.15
2022-11-23T04:45:03.034Z,940.04
2022-11-23T04:50:03.168Z,939.98
2022-11-23T04:55:03.028Z,939.84
2022-11-23T05:00:03.147Z,939.80
2022-11-23T05:05:02.976Z,939.82
2022-11-23T05:10:03.091Z,939.72
2022-11-23T05:15:03.005Z,939.66
2022-11-23T05:20:03.102Z,939.60
2022-11-23T05:25:02.997Z,939.56
2022-11-23T05:30:03.344Z,939.51
2022-11-23T05:35:03.006Z,939.47
2022-11-23T05:40:03.139Z,939.53
2022-11-23T05:45:05.366Z,939.58
2022-11-23T05:50:03.077Z,939.70
2022-11-23T05:55:02.995Z,939.68
2022-11-23T06:00:03.195Z,939.62
2022-11-23T06:05:02.990Z,939.66
2022-11-23T06:10:03.137Z,939.66
2022-11-23T06:15:10.017Z,939.62
2022-11-23T06:20:03.155Z,939.56
2022-11-23T06:25:02.953Z,939.53
2022-11-23T06:30:02.952Z,939.58
2022-11-23T06:35:02.972Z,939.64
2022-11-23T06:40:02.962Z,939.70
2022-11-23T06:45:02.922Z,939.72
2022-11-23T06:50:03.124Z,939.78
2022-11-23T06:55:03.047Z,939.90
2022-11-23T07:00:03.110Z,939.92
2022-11-23T07:05:02.847Z,940.00
2022-11-23T07:10:06.970Z,940.04
2022-11-23T07:15:02.937Z,940.02
2022-11-23T07:20:03.027Z,940.06
2022-11-23T16:15:02.960Z,940.57
2022-11-23T16:20:03.226Z,940.61
2022-11-23T16:25:02.883Z,940.49
2022-11-23T16:30:03.678Z,940.41
2022-11-23T16:35:02.922Z,940.39
2022-11-23T16:40:03.148Z,940.29
2022-11-23T16:45:04.024Z,940.19
2022-11-23T16:50:03.124Z,940.23
2022-11-23T16:55:02.936Z,940.11
2022-11-23T17:00:03.033Z,940.00
2022-11-23T17:05:03.047Z,939.84
2022-11-23T17:10:03.058Z,939.80
2022-11-23T17:15:02.933Z,939.74
2022-11-23T17:20:04.636Z,939.68
2022-11-23T17:25:02.930Z,939.68
2022-11-23T17:30:03.060Z,939.64
2022-11-23T17:35:02.840Z,939.54
2022-11-23T17:40:03.019Z,939.53
2022-11-23T17:45:02.908Z,939.45
2022-11-23T17:50:03.114Z,939.39
2022-11-23T17:55:03.135Z,939.27
2022-11-23T18:00:03.729Z,939.19
2022-11-23T18:05:02.978Z,939.19
2022-11-23T18:10:03.091Z,939.15
2022-11-23T18:15:03.974Z,939.09
2022-11-23T18:20:03.134Z,939.00
2022-11-23T18:25:02.992Z,938.94
2022-11-23T18:30:03.015Z,938.88
2022-11-23T18:35:08.208Z,938.82
2022-11-23T18:40:03.137Z,938.82
2022-11-23T18:45:02.870Z,938.80
2022-11-23T18:50:06.353Z,938.74
2022-11-23T18:55:02.904Z,938.68
2022-11-23T19:00:03.385Z,938.58
2022-11-23T19:05:02.971Z,938.58
2022-11-23T19:10:03.100Z,938.54
2022-11-23T19:15:02.868Z,938.52
2022-11-23T19:20:03.079Z,938.47
2022-11-23T19:25:03.104Z,938.45
2022-11-23T19:30:03.177Z,938.49
2022-11-23T19:35:02.899Z,938.37
2022-11-23T19:40:03.089Z,938.27
2022-11-23T19:45:02.943Z,938.21
2022-11-23T19:50:08.112Z,938.19
2022-11-23T19:55:02.961Z,938.15
2022-11-23T20:00:03.997Z,938.11
2022-11-23T20:05:09.075Z,938.04
2022-11-23T20:10:05.980Z,937.96
2022-11-23T20:15:03.700Z,937.86
2022-11-23T20:20:03.074Z,937.84
2022-11-23T20:25:02.975Z,937.82
2022-11-23T20:30:12.107Z,937.80
2022-11-23T20:35:03.107Z,937.86
2022-11-23T20:40:03.100Z,937.90
2022-11-23T20:45:03.368Z,937.98
2022-11-23T20:50:03.321Z,938.02
2022-11-23T20:55:04.047Z,937.96
2022-11-23T21:00:03.154Z,937.92
2022-11-23T21:05:02.893Z,937.94
2022-11-23T21:10:03.302Z,937.96
2022-11-23T21:15:04.055Z,938.00
2022-11-23T21:20:03.138Z,938.02
2022-11-23T21:25:03.027Z,938.08
2022-11-23T21:30:03.245Z,938.11
2022-11-23T21:35:02.984Z,938.17
2022-11-23T21:40:03.090Z,938.25
2022-11-23T21:45:03.023Z,938.31
2022-11-23T21:50:08.141Z,938.35
2022-11-23T21:55:03.030Z,938.45
2022-11-23T22:00:03.182Z,938.49
2022-11-23T22:05:03.036Z,938.45
2022-11-23T22:10:03.162Z,938.52
2022-11-23T22:15:03.169Z,938.68
2022-11-23T22:20:03.168Z,938.70
2022-11-23T22:25:02.992Z,938.80
2022-11-23T22:30:03.087Z,938.92
2022-11-23T22:35:03.006Z,938.94
2022-11-23T22:40:03.146Z,938.90
2022-11-23T22:45:03.118Z,938.90
2022-11-23T22:50:08.190Z,938.94
2022-11-23T22:55:03.042Z,938.98
2022-11-23T23:00:03.203Z,939.09
2022-11-23T23:05:03.008Z,939.15
2022-11-23T23:10:03.473Z,939.15
2022-11-23T23:15:03.084Z,939.13
2022-11-23T23:20:03.116Z,939.09
2022-11-23T23:25:07.564Z,939.11
2022-11-23T23:30:03.102Z,939.17
2022-11-23T23:35:08.049Z,939.19
2022-11-23T23:40:03.187Z,939.23
2022-11-23T23:45:02.994Z,939.25
2022-11-23T23:50:03.309Z,939.29
2022-11-23T23:55:03.070Z,939.33
